ENHF

Hammerfest Airport

Hammerfest, Norway
METAR ENHF 241450Z 24019KT 9999 -RA BKN012 07/05 Q1008 RMK WIND 1254FT 27022KT
Observed Flight Rules
Jun-24 @ 14:50 UTC (17 minutes ago) Marginal Visual Flight Rules
Wind Visibility Clouds Conditions
240° at 19 knots 10,000+ meters
  • Broken at 1,200' AGL
  • Light Rain
Temperatures Readings
Current 7°C / 45°F
Dewpoint 5°C / 41°F
Humidity 87%
Altimeter 29.76" Hg
Pressure 1008 hPa
Elevation 81
METAR ENHF 241450Z 24019KT 9999 -RA BKN012 07/05 Q1008 RMK WIND 1254FT 27022KT
Observed Flight Rules
Jun-24 @ 14:50 UTC
(17 minutes ago)
MVFR
Wind Visibility
240° at 19 knots 10,000+ meters
Clouds
  • Broken at 1,200' AGL
Conditions
  • Light Rain
Temperature Dewpoint
7°C / 45°F 5°C / 41°F
Humidity Altimeter Pressure
87% 29.76" Hg 1008 hPa